createdAt,value
2022-10-05T00:01:29.132Z,64.75
2022-10-05T00:04:24.190Z,62.18
2022-10-05T00:07:18.971Z,62.42
2022-10-05T00:10:16.293Z,62.72
2022-10-05T00:13:13.752Z,62.44
2022-10-05T00:16:10.833Z,60.64
2022-10-05T00:18:59.909Z,60.59
2022-10-05T00:21:48.064Z,60.52
2022-10-05T00:24:35.947Z,59.09
2022-10-05T00:27:27.390Z,61.83
2022-10-05T00:30:18.708Z,65.14
2022-10-05T00:33:06.143Z,64.64
2022-10-05T00:35:55.402Z,65.00
2022-10-05T00:38:43.950Z,62.75
2022-10-05T00:42:02.826Z,62.35
2022-10-05T00:45:07.792Z,61.59
2022-10-05T00:48:43.655Z,60.92
2022-10-05T00:51:37.194Z,60.70
2022-10-05T00:54:39.779Z,60.32
2022-10-05T00:58:03.294Z,59.65
2022-10-05T01:01:24.181Z,60.46
2022-10-05T01:04:35.713Z,64.73
2022-10-05T01:07:44.560Z,63.75
2022-10-05T01:10:35.461Z,62.46
2022-10-05T01:13:47.447Z,61.88
2022-10-05T01:16:59.422Z,61.37
2022-10-05T01:20:36.394Z,60.82
2022-10-05T01:24:01.636Z,61.53
2022-10-05T01:27:32.118Z,61.45
2022-10-05T01:30:22.225Z,60.99
2022-10-05T01:33:29.562Z,59.98
2022-10-05T01:36:41.764Z,58.22
2022-10-05T01:39:59.222Z,60.52
2022-10-05T01:43:05.460Z,65.36
2022-10-05T01:47:09.848Z,65.65
2022-10-05T01:50:11.504Z,63.24
2022-10-05T01:53:10.920Z,62.20
2022-10-05T01:56:09.998Z,61.23
2022-10-05T01:59:22.768Z,60.53
2022-10-05T02:02:17.153Z,59.19
2022-10-05T02:05:16.745Z,61.15
2022-10-05T02:08:15.842Z,64.74
2022-10-05T02:11:12.305Z,64.01
2022-10-05T02:14:12.356Z,62.95
2022-10-05T02:17:08.598Z,61.77
2022-10-05T02:20:07.626Z,61.65
2022-10-05T02:23:02.587Z,60.90
2022-10-05T02:25:55.352Z,61.05
2022-10-05T02:28:54.017Z,60.33
2022-10-05T02:31:52.917Z,60.87
2022-10-05T02:34:43.594Z,60.42
2022-10-05T02:37:58.913Z,60.91
2022-10-05T02:41:08.429Z,61.25
2022-10-05T02:44:21.967Z,61.24
2022-10-05T02:47:30.051Z,61.07
2022-10-05T02:50:31.647Z,61.32
2022-10-05T02:53:53.817Z,61.24
2022-10-05T02:57:10.346Z,60.97
2022-10-05T03:00:04.805Z,60.94
2022-10-05T03:03:30.303Z,60.81
2022-10-05T03:06:38.868Z,61.09
2022-10-05T03:09:34.376Z,61.34
2022-10-05T03:12:38.266Z,61.24
2022-10-05T03:15:39.390Z,61.10
2022-10-05T03:19:22.845Z,60.80
2022-10-05T03:22:58.054Z,61.00
2022-10-05T03:26:01.392Z,61.56
2022-10-05T03:29:29.950Z,60.91
2022-10-05T03:32:45.894Z,60.76
2022-10-05T03:36:01.573Z,60.82
2022-10-05T03:39:14.663Z,60.49
2022-10-05T03:42:56.023Z,60.63
2022-10-05T03:46:17.326Z,60.40
2022-10-05T03:49:15.923Z,60.83
2022-10-05T03:52:37.662Z,60.86
2022-10-05T03:55:44.251Z,60.71
2022-10-05T03:58:42.779Z,60.78
2022-10-05T04:02:06.771Z,60.43
2022-10-05T04:05:05.626Z,60.92
2022-10-05T04:08:08.223Z,60.34
2022-10-05T04:11:04.415Z,60.55
2022-10-05T04:14:12.849Z,60.70
2022-10-05T04:17:14.275Z,60.58
2022-10-05T04:20:27.275Z,60.32
2022-10-05T04:23:47.469Z,60.60
2022-10-05T04:26:57.789Z,60.36
2022-10-05T04:30:02.962Z,60.54
2022-10-05T04:32:58.002Z,59.93
2022-10-05T04:36:08.783Z,59.99
2022-10-05T04:39:25.917Z,60.73
2022-10-05T04:43:08.139Z,61.07
2022-10-05T04:46:33.087Z,60.95
2022-10-05T04:49:51.113Z,61.20
2022-10-05T04:53:12.066Z,61.12
2022-10-05T04:56:11.278Z,60.82
2022-10-05T04:59:54.668Z,60.98
2022-10-05T05:02:47.956Z,60.84
2022-10-05T05:06:17.178Z,61.03
2022-10-05T05:09:34.802Z,60.77
2022-10-05T05:13:05.714Z,60.72
2022-10-05T05:16:18.486Z,61.21
2022-10-05T05:19:31.380Z,60.87
2022-10-05T05:22:29.023Z,61.28
2022-10-05T05:25:40.171Z,62.11
2022-10-05T05:28:47.500Z,61.68
2022-10-05T05:32:13.540Z,61.41
2022-10-05T05:35:32.049Z,61.07
2022-10-05T05:38:44.772Z,60.70
2022-10-05T05:42:20.941Z,60.65
2022-10-05T05:45:33.740Z,60.70
2022-10-05T05:48:32.541Z,60.69
2022-10-05T05:51:44.153Z,60.94
2022-10-05T05:54:39.707Z,61.20
2022-10-05T05:58:00.749Z,60.96
2022-10-05T06:01:32.184Z,60.66
2022-10-05T06:04:36.845Z,60.92
2022-10-05T06:07:30.846Z,60.69
2022-10-05T06:10:41.603Z,59.77
2022-10-05T06:13:40.554Z,58.81
2022-10-05T06:17:06.836Z,61.81
2022-10-05T06:20:04.124Z,64.49
2022-10-05T06:23:02.275Z,62.43
2022-10-05T06:26:39.700Z,60.89
2022-10-05T06:29:50.922Z,60.18
2022-10-05T06:33:01.592Z,59.65
2022-10-05T06:36:07.195Z,60.31
2022-10-05T06:39:24.386Z,63.42
2022-10-05T06:42:40.530Z,62.46
2022-10-05T06:45:53.274Z,60.80
2022-10-05T06:49:46.931Z,60.10
2022-10-05T06:53:28.420Z,59.70
2022-10-05T06:57:01.315Z,62.26
2022-10-05T07:00:04.747Z,63.66
2022-10-05T07:03:28.372Z,61.78
2022-10-05T07:06:38.456Z,60.55
2022-10-05T07:09:32.846Z,59.59
2022-10-05T07:12:58.971Z,60.21
2022-10-05T07:16:05.305Z,63.71
2022-10-05T07:19:35.094Z,62.79
2022-10-05T07:22:31.717Z,60.69
2022-10-05T07:25:28.837Z,59.59
2022-10-05T07:28:35.664Z,59.23
2022-10-05T07:31:36.030Z,61.47
2022-10-05T07:34:58.704Z,63.72
2022-10-05T07:37:54.861Z,61.82
2022-10-05T07:40:54.467Z,60.15
2022-10-05T07:44:12.606Z,59.91
2022-10-05T07:47:15.611Z,59.21
2022-10-05T07:50:15.535Z,62.33
2022-10-05T07:53:19.186Z,63.46
2022-10-05T07:56:36.963Z,61.14
2022-10-05T07:59:38.903Z,59.55
2022-10-05T08:02:51.432Z,60.38
2022-10-05T08:05:44.956Z,62.83
2022-10-05T08:09:47.365Z,62.34
2022-10-05T08:13:19.192Z,59.40
2022-10-05T08:16:14.890Z,60.94
2022-10-05T08:19:40.591Z,63.20
2022-10-05T08:22:37.971Z,61.21
2022-10-05T08:25:45.013Z,59.05
2022-10-05T08:28:44.044Z,58.85
2022-10-05T08:31:37.403Z,61.50
2022-10-05T08:34:46.028Z,62.14
2022-10-05T08:37:40.228Z,59.27
2022-10-05T08:41:11.533Z,60.28
2022-10-05T08:44:17.563Z,61.24
2022-10-05T08:47:28.280Z,60.81
2022-10-05T08:50:31.968Z,60.95
2022-10-05T08:53:47.564Z,61.46
2022-10-05T08:57:05.829Z,61.42
2022-10-05T09:00:10.561Z,61.71
2022-10-05T09:03:34.774Z,61.41
2022-10-05T09:06:43.670Z,61.89
2022-10-05T09:09:49.414Z,61.56
2022-10-05T09:13:21.739Z,61.93
2022-10-05T09:16:53.143Z,62.18
2022-10-05T09:20:09.177Z,58.68
2022-10-05T09:23:26.986Z,58.65
2022-10-05T09:26:41.156Z,60.25
2022-10-05T09:29:47.801Z,61.71
2022-10-05T09:32:53.941Z,62.22
2022-10-05T09:36:03.365Z,58.94
2022-10-05T09:39:16.462Z,57.13
2022-10-05T09:43:28.294Z,58.94
2022-10-05T09:46:43.072Z,60.13
2022-10-05T09:49:58.752Z,60.71
2022-10-05T09:53:00.899Z,60.60
2022-10-05T09:56:15.527Z,59.26
2022-10-05T09:59:43.935Z,59.22
2022-10-05T10:02:56.217Z,59.77
2022-10-05T10:05:49.980Z,59.70
2022-10-05T10:09:07.838Z,59.78
2022-10-05T10:12:19.639Z,60.19
2022-10-05T10:15:43.048Z,60.77
2022-10-05T10:18:52.525Z,61.03
2022-10-05T10:22:33.016Z,61.20
2022-10-05T10:25:24.284Z,61.17
2022-10-05T10:28:40.173Z,61.38
2022-10-05T10:32:10.570Z,61.36
2022-10-05T10:35:42.211Z,59.65
2022-10-05T10:38:52.013Z,59.12
2022-10-05T10:42:01.038Z,58.75
2022-10-05T10:45:13.515Z,57.90
2022-10-05T10:48:11.126Z,56.68
2022-10-05T10:51:36.541Z,56.29
2022-10-05T10:55:05.601Z,56.61
2022-10-05T10:58:57.381Z,54.87
2022-10-05T11:02:22.555Z,54.64
2022-10-05T11:06:02.153Z,53.80
2022-10-05T11:09:24.116Z,52.58
2022-10-05T11:13:03.598Z,53.35
2022-10-05T11:16:36.640Z,53.54
2022-10-05T11:20:03.559Z,53.82
2022-10-05T11:23:18.329Z,54.07
2022-10-05T11:26:42.867Z,54.49
2022-10-05T11:30:02.635Z,54.98
2022-10-05T11:33:24.519Z,55.13
2022-10-05T11:36:53.470Z,55.58
2022-10-05T11:40:13.456Z,56.11
2022-10-05T11:43:38.377Z,56.37
2022-10-05T11:47:05.196Z,56.34
2022-10-05T11:49:59.413Z,56.15
2022-10-05T11:53:00.904Z,56.52
2022-10-05T11:56:13.966Z,56.95
2022-10-05T11:59:27.206Z,56.62
2022-10-05T12:02:47.032Z,56.60
2022-10-05T12:06:08.967Z,56.24
2022-10-05T12:09:18.716Z,56.24
2022-10-05T12:12:22.521Z,56.71
2022-10-05T12:15:29.769Z,56.96
2022-10-05T12:18:30.445Z,57.21
2022-10-05T12:21:56.742Z,57.64
2022-10-05T12:25:02.921Z,58.19
2022-10-05T12:27:57.265Z,58.41
2022-10-05T12:31:08.828Z,58.70
2022-10-05T12:34:04.383Z,59.20
2022-10-05T12:37:38.643Z,59.16
2022-10-05T12:40:52.423Z,59.45
2022-10-05T12:43:53.920Z,59.45
2022-10-05T12:46:44.066Z,59.49
2022-10-05T12:49:44.198Z,59.42
2022-10-05T12:53:23.526Z,59.22
2022-10-05T12:56:50.307Z,59.31
2022-10-05T13:00:00.345Z,59.15
2022-10-05T13:02:55.285Z,59.03
2022-10-05T13:06:07.566Z,58.77
2022-10-05T13:09:11.438Z,58.62
2022-10-05T13:12:13.944Z,58.86
2022-10-05T13:15:14.362Z,58.90
2022-10-05T13:18:25.356Z,59.00
2022-10-05T13:21:30.163Z,59.12
2022-10-05T13:24:34.790Z,59.52
2022-10-05T13:27:29.614Z,59.79
2022-10-05T13:30:21.049Z,59.79
2022-10-05T13:33:33.466Z,60.03
2022-10-05T13:36:46.099Z,60.35
2022-10-05T13:40:03.879Z,60.52
2022-10-05T13:43:06.318Z,60.75
2022-10-05T13:46:28.671Z,60.80
2022-10-05T13:49:23.750Z,60.79
2022-10-05T13:52:37.812Z,60.96
2022-10-05T13:55:49.837Z,61.13
2022-10-05T13:59:20.315Z,61.34
2022-10-05T14:02:42.804Z,61.46
2022-10-05T14:05:31.917Z,61.82
2022-10-05T14:08:19.663Z,61.91
2022-10-05T14:11:36.928Z,62.03
2022-10-05T14:14:31.820Z,62.25
2022-10-05T14:17:43.609Z,62.85
2022-10-05T14:20:34.567Z,58.82
2022-10-05T14:23:27.278Z,57.44
2022-10-05T14:26:33.054Z,58.77
2022-10-05T14:29:35.385Z,59.91
2022-10-05T14:32:25.894Z,60.77
2022-10-05T14:35:17.507Z,61.46
2022-10-05T14:38:30.241Z,62.61
2022-10-05T14:41:22.723Z,61.18
2022-10-05T14:44:13.510Z,57.63
2022-10-05T14:47:20.457Z,58.58
2022-10-05T14:50:26.438Z,60.05
2022-10-05T14:53:18.861Z,61.86
2022-10-05T14:56:40.615Z,62.87
2022-10-05T15:00:12.501Z,61.49
2022-10-05T15:03:19.624Z,58.03
2022-10-05T15:06:21.581Z,57.96
2022-10-05T15:09:53.898Z,60.12
2022-10-05T15:12:48.875Z,61.94
2022-10-05T15:15:50.257Z,62.68
2022-10-05T15:18:57.668Z,61.20
2022-10-05T15:22:19.017Z,57.80
2022-10-05T15:25:26.956Z,59.52
2022-10-05T15:28:40.725Z,61.28
2022-10-05T15:31:40.804Z,62.80
2022-10-05T15:34:41.583Z,61.43
2022-10-05T15:37:53.814Z,58.86
2022-10-05T15:40:55.101Z,59.46
2022-10-05T15:44:15.078Z,61.06
2022-10-05T15:47:14.339Z,63.98
2022-10-05T15:50:22.607Z,60.86
2022-10-05T15:53:27.022Z,59.03
2022-10-05T15:56:36.379Z,59.99
2022-10-05T15:59:54.365Z,62.72
2022-10-05T16:03:33.198Z,63.01
2022-10-05T16:06:45.566Z,59.26
2022-10-05T16:09:45.461Z,59.64
2022-10-05T16:13:05.164Z,61.87
2022-10-05T16:16:21.065Z,64.16
2022-10-05T16:19:42.083Z,62.15
2022-10-05T16:22:59.819Z,61.71
2022-10-05T16:26:45.520Z,58.74
2022-10-05T16:29:47.625Z,61.11
2022-10-05T16:32:46.429Z,63.43
2022-10-05T16:35:43.027Z,63.58
2022-10-05T16:38:59.253Z,59.69
2022-10-05T16:42:21.626Z,59.89
2022-10-05T16:45:51.859Z,62.85
2022-10-05T16:48:58.941Z,64.71
2022-10-05T16:52:20.512Z,60.47
2022-10-05T16:55:51.327Z,61.39
2022-10-05T16:59:20.307Z,59.10
2022-10-05T17:02:52.092Z,62.02
2022-10-05T17:05:59.081Z,64.09
2022-10-05T17:09:18.315Z,62.99
2022-10-05T17:12:31.318Z,60.87
2022-10-05T17:15:48.225Z,59.35
2022-10-05T17:19:19.783Z,61.26
2022-10-05T17:22:26.760Z,66.28
2022-10-05T17:26:06.765Z,63.45
2022-10-05T17:29:47.746Z,62.32
2022-10-05T17:32:55.195Z,61.28
2022-10-05T17:36:13.095Z,59.66
2022-10-05T17:39:22.517Z,61.06
2022-10-05T17:42:34.624Z,64.89
2022-10-05T17:45:34.611Z,65.31
2022-10-05T17:48:54.490Z,65.08
2022-10-05T17:52:00.956Z,61.46
2022-10-05T17:55:07.374Z,61.06
2022-10-05T17:57:59.928Z,61.40
2022-10-05T18:01:01.670Z,60.23
2022-10-05T18:03:51.790Z,60.84
2022-10-05T18:07:31.055Z,64.93
2022-10-05T18:10:29.296Z,64.69
2022-10-05T18:13:48.414Z,64.32
2022-10-05T18:17:11.832Z,63.10
2022-10-05T18:20:31.744Z,62.27
2022-10-05T18:23:24.015Z,62.25
2022-10-05T18:26:57.497Z,62.62
2022-10-05T18:30:25.845Z,59.87
2022-10-05T18:33:43.253Z,59.11
2022-10-05T18:37:10.783Z,63.98
2022-10-05T18:40:51.438Z,63.75
2022-10-05T18:44:21.792Z,63.11
2022-10-05T18:47:23.231Z,61.70
2022-10-05T18:50:34.025Z,62.23
2022-10-05T18:53:47.750Z,61.24
2022-10-05T18:56:45.661Z,61.17
2022-10-05T18:59:55.030Z,61.10
2022-10-05T19:03:04.677Z,61.78
2022-10-05T19:06:30.071Z,61.75
2022-10-05T19:09:56.279Z,61.25
2022-10-05T19:13:20.787Z,61.68
2022-10-05T19:16:57.659Z,61.93
2022-10-05T19:20:17.649Z,61.58
2022-10-05T19:23:33.692Z,60.87
2022-10-05T19:26:50.165Z,59.39
2022-10-05T19:30:24.198Z,59.34
2022-10-05T19:33:36.221Z,64.80
2022-10-05T19:36:44.119Z,65.38
2022-10-05T19:39:58.793Z,62.84
2022-10-05T19:43:19.521Z,63.32
2022-10-05T19:46:38.024Z,63.54
2022-10-05T19:50:18.859Z,62.62
2022-10-05T19:53:37.307Z,62.26
2022-10-05T19:56:46.086Z,60.01
2022-10-05T19:59:34.913Z,60.66
2022-10-05T20:02:27.218Z,60.02
2022-10-05T20:05:15.604Z,60.47
2022-10-05T20:08:06.229Z,61.38
2022-10-05T20:11:11.880Z,61.01
2022-10-05T20:14:02.504Z,60.69
2022-10-05T20:17:44.727Z,60.45
2022-10-05T20:20:43.264Z,60.67
2022-10-05T20:23:33.955Z,60.25
2022-10-05T20:27:05.202Z,61.41
2022-10-05T20:29:53.376Z,61.64
2022-10-05T20:32:41.812Z,60.65
2022-10-05T20:35:30.996Z,60.19
2022-10-05T20:38:18.853Z,60.70
2022-10-05T20:41:06.764Z,60.42
2022-10-05T20:43:55.961Z,59.71
2022-10-05T20:46:46.687Z,59.99
2022-10-05T20:49:37.519Z,63.20
2022-10-05T20:52:25.908Z,63.87
2022-10-05T20:55:14.722Z,63.08
2022-10-05T20:58:02.297Z,61.88
2022-10-05T21:01:08.840Z,61.62
2022-10-05T21:03:56.771Z,61.82
2022-10-05T21:06:45.957Z,61.00
2022-10-05T21:09:34.146Z,60.82
2022-10-05T21:12:21.747Z,61.03
2022-10-05T21:15:10.675Z,60.83
2022-10-05T21:17:58.499Z,61.23
2022-10-05T21:20:48.089Z,61.19
2022-10-05T21:23:36.708Z,61.08
2022-10-05T21:26:24.405Z,61.22
2022-10-05T21:29:13.181Z,60.85
2022-10-05T21:32:01.482Z,60.49
2022-10-05T21:34:50.106Z,61.18
2022-10-05T21:37:38.243Z,60.68
2022-10-05T21:40:26.218Z,60.66
2022-10-05T21:43:14.625Z,61.14
2022-10-05T21:46:02.969Z,61.31
2022-10-05T21:48:50.991Z,61.84
2022-10-05T21:51:40.163Z,61.77
2022-10-05T21:54:28.851Z,60.82
2022-10-05T21:57:16.894Z,60.82
2022-10-05T22:00:08.732Z,60.66
2022-10-05T22:02:56.896Z,60.45
2022-10-05T22:05:44.684Z,60.66
2022-10-05T22:08:34.578Z,59.89
2022-10-05T22:11:23.029Z,60.43
2022-10-05T22:14:14.712Z,60.81
2022-10-05T22:17:02.908Z,60.16
2022-10-05T22:19:51.476Z,60.43
2022-10-05T22:22:39.159Z,60.08
2022-10-05T22:25:26.998Z,60.42
2022-10-05T22:28:16.873Z,60.17
2022-10-05T22:31:07.979Z,60.51
2022-10-05T22:33:55.939Z,60.18
2022-10-05T22:36:43.951Z,60.36
2022-10-05T22:39:31.621Z,60.64
2022-10-05T22:42:19.617Z,60.09
2022-10-05T22:45:08.961Z,59.95
2022-10-05T22:47:56.376Z,60.26
2022-10-05T22:50:45.741Z,60.89
2022-10-05T22:53:34.911Z,60.77
2022-10-05T22:56:22.897Z,60.94
2022-10-05T22:59:11.087Z,60.74
2022-10-05T23:01:58.894Z,60.17
2022-10-05T23:04:47.067Z,60.14
2022-10-05T23:07:40.860Z,59.85
2022-10-05T23:10:29.105Z,59.52
2022-10-05T23:13:17.128Z,58.23
2022-10-05T23:16:21.417Z,61.78
2022-10-05T23:19:09.256Z,64.54
2022-10-05T23:21:57.287Z,63.37
2022-10-05T23:24:45.337Z,62.64
2022-10-05T23:27:41.487Z,61.74
2022-10-05T23:30:29.783Z,61.20
2022-10-05T23:33:17.421Z,60.95
2022-10-05T23:36:15.716Z,60.61
2022-10-05T23:39:03.733Z,60.77
2022-10-05T23:41:51.234Z,60.46
2022-10-05T23:44:39.198Z,60.07
2022-10-05T23:47:27.220Z,59.88
2022-10-05T23:50:15.598Z,60.08
2022-10-05T23:53:04.635Z,60.83
2022-10-05T23:55:54.126Z,60.39
2022-10-05T23:58:42.110Z,60.23
